sensor_id;sensor_type;location;lat;lon;timestamp;temperature;humidity
25914;DHT22;13718;50.922;5.346;2022-10-26T00:00:36;13.60;99.90
25914;DHT22;13718;50.922;5.346;2022-10-26T00:03:01;13.60;99.90
25914;DHT22;13718;50.922;5.346;2022-10-26T00:05:27;13.60;99.90
25914;DHT22;13718;50.922;5.346;2022-10-26T00:07:53;13.40;99.90
25914;DHT22;13718;50.922;5.346;2022-10-26T00:10:18;13.40;99.90
25914;DHT22;13718;50.922;5.346;2022-10-26T00:12:48;13.30;99.90
25914;DHT22;13718;50.922;5.346;2022-10-26T00:15:15;13.20;99.90
25914;DHT22;13718;50.922;5.346;2022-10-26T00:17:41;13.30;99.90
25914;DHT22;13718;50.922;5.346;2022-10-26T00:20:07;13.40;99.90
25914;DHT22;13718;50.922;5.346;2022-10-26T00:22:32;13.40;99.90
25914;DHT22;13718;50.922;5.346;2022-10-26T00:24:58;13.40;99.90
25914;DHT22;13718;50.922;5.346;2022-10-26T00:27:23;13.50;99.90
25914;DHT22;13718;50.922;5.346;2022-10-26T00:29:49;13.50;99.90
25914;DHT22;13718;50.922;5.346;2022-10-26T00:32:14;13.50;99.90
25914;DHT22;13718;50.922;5.346;2022-10-26T00:34:40;13.50;99.90
25914;DHT22;13718;50.922;5.346;2022-10-26T00:37:06;13.50;99.90
25914;DHT22;13718;50.922;5.346;2022-10-26T00:39:31;13.60;99.90
25914;DHT22;13718;50.922;5.346;2022-10-26T00:41:57;13.60;99.90
25914;DHT22;13718;50.922;5.346;2022-10-26T00:47:36;14.00;99.90
25914;DHT22;13718;50.922;5.346;2022-10-26T00:50:19;13.90;99.90
25914;DHT22;13718;50.922;5.346;2022-10-26T00:52:45;13.90;99.90
25914;DHT22;13718;50.922;5.346;2022-10-26T00:55:11;13.90;99.90
25914;DHT22;13718;50.922;5.346;2022-10-26T00:57:38;14.00;99.90
25914;DHT22;13718;50.922;5.346;2022-10-26T01:00:06;13.90;99.90
25914;DHT22;13718;50.922;5.346;2022-10-26T01:02:32;13.90;99.90
25914;DHT22;13718;50.922;5.346;2022-10-26T01:04:58;13.90;99.90
25914;DHT22;13718;50.922;5.346;2022-10-26T01:07:26;14.00;99.90
25914;DHT22;13718;50.922;5.346;2022-10-26T01:09:52;14.20;99.90
25914;DHT22;13718;50.922;5.346;2022-10-26T01:12:19;14.10;99.90
25914;DHT22;13718;50.922;5.346;2022-10-26T01:14:45;14.30;99.90
25914;DHT22;13718;50.922;5.346;2022-10-26T01:17:31;14.20;99.90
25914;DHT22;13718;50.922;5.346;2022-10-26T01:20:30;14.30;99.90
25914;DHT22;13718;50.922;5.346;2022-10-26T01:31:10;14.20;99.90
25914;DHT22;13718;50.922;5.346;2022-10-26T01:33:41;14.20;99.90
25914;DHT22;13718;50.922;5.346;2022-10-26T01:36:31;14.10;99.90
25914;DHT22;13718;50.922;5.346;2022-10-26T01:39:14;14.10;99.90
25914;DHT22;13718;50.922;5.346;2022-10-26T01:41:54;14.10;99.90
25914;DHT22;13718;50.922;5.346;2022-10-26T01:44:40;14.10;99.90
25914;DHT22;13718;50.922;5.346;2022-10-26T01:47:13;14.00;99.90
25914;DHT22;13718;50.922;5.346;2022-10-26T01:49:43;13.90;99.90
25914;DHT22;13718;50.922;5.346;2022-10-26T01:52:11;13.90;99.90
25914;DHT22;13718;50.922;5.346;2022-10-26T01:54:37;13.80;99.90
25914;DHT22;13718;50.922;5.346;2022-10-26T01:57:05;14.00;99.90
25914;DHT22;13718;50.922;5.346;2022-10-26T02:13:17;14.20;99.90
25914;DHT22;13718;50.922;5.346;2022-10-26T02:18:31;13.90;99.90
25914;DHT22;13718;50.922;5.346;2022-10-26T02:21:04;14.00;99.90
25914;DHT22;13718;50.922;5.346;2022-10-26T02:23:32;14.10;99.90
25914;DHT22;13718;50.922;5.346;2022-10-26T02:26:00;14.10;99.90
25914;DHT22;13718;50.922;5.346;2022-10-26T02:28:31;14.00;99.90
25914;DHT22;13718;50.922;5.346;2022-10-26T02:31:00;13.90;99.90
25914;DHT22;13718;50.922;5.346;2022-10-26T02:33:30;13.90;99.90
25914;DHT22;13718;50.922;5.346;2022-10-26T02:35:59;13.90;99.90
25914;DHT22;13718;50.922;5.346;2022-10-26T02:38:28;13.80;99.90
25914;DHT22;13718;50.922;5.346;2022-10-26T02:40:55;13.90;99.90
25914;DHT22;13718;50.922;5.346;2022-10-26T02:43:22;13.90;99.90
25914;DHT22;13718;50.922;5.346;2022-10-26T02:45:56;14.10;99.90
25914;DHT22;13718;50.922;5.346;2022-10-26T02:48:23;14.20;99.90
25914;DHT22;13718;50.922;5.346;2022-10-26T02:51:09;14.30;99.90
25914;DHT22;13718;50.922;5.346;2022-10-26T02:53:50;14.30;99.90
25914;DHT22;13718;50.922;5.346;2022-10-26T02:56:25;14.20;99.90
25914;DHT22;13718;50.922;5.346;2022-10-26T02:58:56;14.30;99.90
25914;DHT22;13718;50.922;5.346;2022-10-26T03:01:23;14.20;99.90
25914;DHT22;13718;50.922;5.346;2022-10-26T03:03:49;14.20;99.90
25914;DHT22;13718;50.922;5.346;2022-10-26T03:06:24;14.20;99.90
25914;DHT22;13718;50.922;5.346;2022-10-26T03:08:50;14.20;99.90
25914;DHT22;13718;50.922;5.346;2022-10-26T03:11:16;14.20;99.90
25914;DHT22;13718;50.922;5.346;2022-10-26T03:13:42;14.20;99.90
25914;DHT22;13718;50.922;5.346;2022-10-26T03:16:07;14.20;99.90
25914;DHT22;13718;50.922;5.346;2022-10-26T03:18:33;14.30;99.90
25914;DHT22;13718;50.922;5.346;2022-10-26T03:20:59;14.20;99.90
25914;DHT22;13718;50.922;5.346;2022-10-26T03:23:25;14.10;99.90
25914;DHT22;13718;50.922;5.346;2022-10-26T03:25:50;14.00;99.90
25914;DHT22;13718;50.922;5.346;2022-10-26T03:28:16;13.90;99.90
25914;DHT22;13718;50.922;5.346;2022-10-26T03:30:41;13.80;99.90
25914;DHT22;13718;50.922;5.346;2022-10-26T03:33:07;13.70;99.90
25914;DHT22;13718;50.922;5.346;2022-10-26T03:35:33;13.70;99.90
25914;DHT22;13718;50.922;5.346;2022-10-26T03:37:59;13.70;99.90
25914;DHT22;13718;50.922;5.346;2022-10-26T03:40:24;13.70;99.90
25914;DHT22;13718;50.922;5.346;2022-10-26T03:42:50;13.80;99.90
25914;DHT22;13718;50.922;5.346;2022-10-26T03:45:15;13.80;99.90
25914;DHT22;13718;50.922;5.346;2022-10-26T03:47:43;13.80;99.90
25914;DHT22;13718;50.922;5.346;2022-10-26T03:50:10;13.90;99.90
25914;DHT22;13718;50.922;5.346;2022-10-26T03:52:36;13.90;99.90
25914;DHT22;13718;50.922;5.346;2022-10-26T03:55:02;13.90;99.90
25914;DHT22;13718;50.922;5.346;2022-10-26T03:57:27;14.00;99.90
25914;DHT22;13718;50.922;5.346;2022-10-26T03:59:53;14.00;99.90
25914;DHT22;13718;50.922;5.346;2022-10-26T04:02:18;14.00;99.90
25914;DHT22;13718;50.922;5.346;2022-10-26T04:04:44;14.00;99.90
25914;DHT22;13718;50.922;5.346;2022-10-26T04:07:10;14.10;99.90
25914;DHT22;13718;50.922;5.346;2022-10-26T04:09:35;14.10;99.90
25914;DHT22;13718;50.922;5.346;2022-10-26T04:12:01;14.10;99.90
25914;DHT22;13718;50.922;5.346;2022-10-26T04:14:26;14.10;99.90
25914;DHT22;13718;50.922;5.346;2022-10-26T04:16:52;14.20;99.90
25914;DHT22;13718;50.922;5.346;2022-10-26T04:19:17;14.20;99.90
25914;DHT22;13718;50.922;5.346;2022-10-26T04:21:43;14.20;99.90
25914;DHT22;13718;50.922;5.346;2022-10-26T04:24:09;14.30;99.90
25914;DHT22;13718;50.922;5.346;2022-10-26T04:26:35;14.40;99.90
25914;DHT22;13718;50.922;5.346;2022-10-26T04:29:01;14.40;99.90
25914;DHT22;13718;50.922;5.346;2022-10-26T04:31:31;14.40;99.90
25914;DHT22;13718;50.922;5.346;2022-10-26T04:33:57;14.50;99.90
25914;DHT22;13718;50.922;5.346;2022-10-26T04:36:22;14.50;99.90
25914;DHT22;13718;50.922;5.346;2022-10-26T04:38:48;14.60;99.90
25914;DHT22;13718;50.922;5.346;2022-10-26T04:41:14;14.70;99.90
25914;DHT22;13718;50.922;5.346;2022-10-26T04:43:40;14.80;99.90
25914;DHT22;13718;50.922;5.346;2022-10-26T04:46:06;14.90;99.90
25914;DHT22;13718;50.922;5.346;2022-10-26T04:48:31;15.10;99.90
25914;DHT22;13718;50.922;5.346;2022-10-26T04:50:58;15.40;99.90
25914;DHT22;13718;50.922;5.346;2022-10-26T04:53:24;15.60;99.90
25914;DHT22;13718;50.922;5.346;2022-10-26T04:55:56;15.80;99.90
25914;DHT22;13718;50.922;5.346;2022-10-26T04:58:22;16.00;99.90
25914;DHT22;13718;50.922;5.346;2022-10-26T05:00:47;16.10;99.90
25914;DHT22;13718;50.922;5.346;2022-10-26T05:03:13;16.10;99.90
25914;DHT22;13718;50.922;5.346;2022-10-26T05:05:38;16.10;99.90
25914;DHT22;13718;50.922;5.346;2022-10-26T05:08:04;16.20;99.90
25914;DHT22;13718;50.922;5.346;2022-10-26T05:10:30;16.20;99.90
25914;DHT22;13718;50.922;5.346;2022-10-26T05:12:57;16.30;99.90
25914;DHT22;13718;50.922;5.346;2022-10-26T05:15:23;16.40;99.90
25914;DHT22;13718;50.922;5.346;2022-10-26T05:18:00;16.60;99.90
25914;DHT22;13718;50.922;5.346;2022-10-26T05:20:29;16.70;99.90
25914;DHT22;13718;50.922;5.346;2022-10-26T05:22:57;16.80;99.90
25914;DHT22;13718;50.922;5.346;2022-10-26T05:25:24;16.80;99.90
25914;DHT22;13718;50.922;5.346;2022-10-26T05:27:49;16.90;99.90
25914;DHT22;13718;50.922;5.346;2022-10-26T05:30:15;16.90;99.90
25914;DHT22;13718;50.922;5.346;2022-10-26T05:32:40;17.00;99.90
25914;DHT22;13718;50.922;5.346;2022-10-26T05:35:09;17.10;99.90
25914;DHT22;13718;50.922;5.346;2022-10-26T05:37:38;17.20;99.90
25914;DHT22;13718;50.922;5.346;2022-10-26T05:40:04;17.10;99.90
25914;DHT22;13718;50.922;5.346;2022-10-26T05:42:30;17.20;99.90
25914;DHT22;13718;50.922;5.346;2022-10-26T05:44:55;17.20;99.90
25914;DHT22;13718;50.922;5.346;2022-10-26T05:47:21;17.20;99.90
25914;DHT22;13718;50.922;5.346;2022-10-26T05:49:47;17.20;99.90
25914;DHT22;13718;50.922;5.346;2022-10-26T05:52:13;17.20;99.90
25914;DHT22;13718;50.922;5.346;2022-10-26T05:54:38;17.20;99.90
25914;DHT22;13718;50.922;5.346;2022-10-26T05:57:04;17.10;99.90
25914;DHT22;13718;50.922;5.346;2022-10-26T05:59:30;17.10;99.90
25914;DHT22;13718;50.922;5.346;2022-10-26T06:02:33;17.10;99.90
25914;DHT22;13718;50.922;5.346;2022-10-26T06:05:04;17.20;99.90
25914;DHT22;13718;50.922;5.346;2022-10-26T06:07:30;17.20;99.90
25914;DHT22;13718;50.922;5.346;2022-10-26T06:09:57;17.10;99.90
25914;DHT22;13718;50.922;5.346;2022-10-26T06:12:23;17.00;99.90
25914;DHT22;13718;50.922;5.346;2022-10-26T06:14:51;17.00;99.90
25914;DHT22;13718;50.922;5.346;2022-10-26T06:25:53;17.30;99.90
25914;DHT22;13718;50.922;5.346;2022-10-26T06:31:02;17.20;99.90
25914;DHT22;13718;50.922;5.346;2022-10-26T06:33:28;17.10;99.90
25914;DHT22;13718;50.922;5.346;2022-10-26T06:38:42;17.00;99.90
25914;DHT22;13718;50.922;5.346;2022-10-26T06:41:12;17.00;99.90
25914;DHT22;13718;50.922;5.346;2022-10-26T06:43:40;17.10;99.90
25914;DHT22;13718;50.922;5.346;2022-10-26T06:46:19;17.10;99.90
25914;DHT22;13718;50.922;5.346;2022-10-26T06:49:07;17.00;99.90
25914;DHT22;13718;50.922;5.346;2022-10-26T06:51:55;16.90;99.90
25914;DHT22;13718;50.922;5.346;2022-10-26T06:54:47;16.90;99.90
25914;DHT22;13718;50.922;5.346;2022-10-26T06:57:12;17.20;99.90
25914;DHT22;13718;50.922;5.346;2022-10-26T06:59:43;17.60;99.90
25914;DHT22;13718;50.922;5.346;2022-10-26T07:02:10;17.90;99.90
25914;DHT22;13718;50.922;5.346;2022-10-26T07:04:36;17.90;99.90
25914;DHT22;13718;50.922;5.346;2022-10-26T07:07:02;17.70;99.90
25914;DHT22;13718;50.922;5.346;2022-10-26T07:09:28;17.70;99.90
25914;DHT22;13718;50.922;5.346;2022-10-26T07:11:53;17.60;99.90
25914;DHT22;13718;50.922;5.346;2022-10-26T07:14:19;17.80;99.90
25914;DHT22;13718;50.922;5.346;2022-10-26T07:16:45;17.90;99.90
25914;DHT22;13718;50.922;5.346;2022-10-26T07:19:10;18.10;99.90
25914;DHT22;13718;50.922;5.346;2022-10-26T07:21:36;18.10;99.90
25914;DHT22;13718;50.922;5.346;2022-10-26T07:24:01;18.10;99.90
25914;DHT22;13718;50.922;5.346;2022-10-26T07:26:27;18.50;99.90
25914;DHT22;13718;50.922;5.346;2022-10-26T07:28:53;19.10;99.90
25914;DHT22;13718;50.922;5.346;2022-10-26T07:31:19;19.80;99.90
25914;DHT22;13718;50.922;5.346;2022-10-26T07:33:44;20.50;99.90
25914;DHT22;13718;50.922;5.346;2022-10-26T07:36:11;21.20;99.90
25914;DHT22;13718;50.922;5.346;2022-10-26T07:38:37;21.70;99.90
25914;DHT22;13718;50.922;5.346;2022-10-26T07:41:03;21.90;99.90
25914;DHT22;13718;50.922;5.346;2022-10-26T07:43:30;22.20;99.90
25914;DHT22;13718;50.922;5.346;2022-10-26T07:45:55;22.60;99.90
25914;DHT22;13718;50.922;5.346;2022-10-26T07:48:21;22.60;99.90
25914;DHT22;13718;50.922;5.346;2022-10-26T07:50:46;23.00;99.90
25914;DHT22;13718;50.922;5.346;2022-10-26T07:53:12;23.10;99.90
25914;DHT22;13718;50.922;5.346;2022-10-26T07:55:38;23.20;99.90
25914;DHT22;13718;50.922;5.346;2022-10-26T07:58:03;23.00;99.90
25914;DHT22;13718;50.922;5.346;2022-10-26T08:00:29;23.10;99.90
25914;DHT22;13718;50.922;5.346;2022-10-26T08:02:55;23.30;99.90
25914;DHT22;13718;50.922;5.346;2022-10-26T08:05:21;22.90;99.90
25914;DHT22;13718;50.922;5.346;2022-10-26T08:07:46;21.90;99.90
25914;DHT22;13718;50.922;5.346;2022-10-26T08:10:13;21.00;99.90
25914;DHT22;13718;50.922;5.346;2022-10-26T08:12:39;20.40;99.90
25914;DHT22;13718;50.922;5.346;2022-10-26T08:15:05;20.00;99.90
25914;DHT22;13718;50.922;5.346;2022-10-26T08:17:31;19.50;99.90
25914;DHT22;13718;50.922;5.346;2022-10-26T08:19:57;19.20;99.90
25914;DHT22;13718;50.922;5.346;2022-10-26T08:22:23;19.10;99.90
25914;DHT22;13718;50.922;5.346;2022-10-26T08:24:48;19.00;99.90
25914;DHT22;13718;50.922;5.346;2022-10-26T08:27:14;19.00;99.90
25914;DHT22;13718;50.922;5.346;2022-10-26T08:29:41;18.90;99.90
25914;DHT22;13718;50.922;5.346;2022-10-26T08:32:07;18.90;99.90
25914;DHT22;13718;50.922;5.346;2022-10-26T08:34:33;18.90;99.90
25914;DHT22;13718;50.922;5.346;2022-10-26T08:36:58;18.70;99.90
25914;DHT22;13718;50.922;5.346;2022-10-26T08:39:24;18.70;99.90
25914;DHT22;13718;50.922;5.346;2022-10-26T08:42:29;19.00;99.90
25914;DHT22;13718;50.922;5.346;2022-10-26T08:44:54;18.90;99.90
25914;DHT22;13718;50.922;5.346;2022-10-26T08:47:27;18.90;99.90
25914;DHT22;13718;50.922;5.346;2022-10-26T08:52:30;18.80;99.90
25914;DHT22;13718;50.922;5.346;2022-10-26T08:54:59;18.70;99.90
25914;DHT22;13718;50.922;5.346;2022-10-26T09:00:19;18.80;99.90
25914;DHT22;13718;50.922;5.346;2022-10-26T09:02:51;18.90;99.90
25914;DHT22;13718;50.922;5.346;2022-10-26T09:05:21;19.10;99.90
25914;DHT22;13718;50.922;5.346;2022-10-26T09:13:41;19.20;99.90
25914;DHT22;13718;50.922;5.346;2022-10-26T09:21:34;19.00;99.90
25914;DHT22;13718;50.922;5.346;2022-10-26T09:24:12;19.00;99.90
25914;DHT22;13718;50.922;5.346;2022-10-26T09:26:57;19.10;99.90
25914;DHT22;13718;50.922;5.346;2022-10-26T09:29:29;19.30;99.90
25914;DHT22;13718;50.922;5.346;2022-10-26T09:31:59;19.40;99.90
25914;DHT22;13718;50.922;5.346;2022-10-26T09:34:27;19.40;99.90
25914;DHT22;13718;50.922;5.346;2022-10-26T09:36:54;19.30;99.90
25914;DHT22;13718;50.922;5.346;2022-10-26T09:39:33;19.30;99.90
25914;DHT22;13718;50.922;5.346;2022-10-26T09:42:11;19.30;99.90
25914;DHT22;13718;50.922;5.346;2022-10-26T09:45:02;19.20;99.90
25914;DHT22;13718;50.922;5.346;2022-10-26T09:47:38;19.30;99.90
25914;DHT22;13718;50.922;5.346;2022-10-26T09:50:28;19.40;99.90
25914;DHT22;13718;50.922;5.346;2022-10-26T09:52:55;19.50;99.90
25914;DHT22;13718;50.922;5.346;2022-10-26T09:55:20;19.50;99.90
25914;DHT22;13718;50.922;5.346;2022-10-26T09:57:50;19.60;99.90
25914;DHT22;13718;50.922;5.346;2022-10-26T10:00:18;19.70;99.90
25914;DHT22;13718;50.922;5.346;2022-10-26T10:02:50;19.80;99.90
25914;DHT22;13718;50.922;5.346;2022-10-26T10:05:30;19.80;99.90
25914;DHT22;13718;50.922;5.346;2022-10-26T10:08:19;19.90;99.90
25914;DHT22;13718;50.922;5.346;2022-10-26T10:10:56;20.00;99.90
25914;DHT22;13718;50.922;5.346;2022-10-26T10:13:24;20.10;99.90
25914;DHT22;13718;50.922;5.346;2022-10-26T10:15:58;20.00;99.90
25914;DHT22;13718;50.922;5.346;2022-10-26T10:18:24;20.00;99.90
25914;DHT22;13718;50.922;5.346;2022-10-26T10:20:53;20.10;99.90
25914;DHT22;13718;50.922;5.346;2022-10-26T10:26:05;20.10;99.90
25914;DHT22;13718;50.922;5.346;2022-10-26T10:28:31;20.10;99.90
25914;DHT22;13718;50.922;5.346;2022-10-26T10:31:03;20.20;99.90
25914;DHT22;13718;50.922;5.346;2022-10-26T10:33:37;20.30;99.90
25914;DHT22;13718;50.922;5.346;2022-10-26T10:36:15;20.20;99.90
25914;DHT22;13718;50.922;5.346;2022-10-26T10:38:44;20.20;99.90
25914;DHT22;13718;50.922;5.346;2022-10-26T10:43:55;20.30;99.90
25914;DHT22;13718;50.922;5.346;2022-10-26T10:46:24;20.30;99.90
25914;DHT22;13718;50.922;5.346;2022-10-26T10:49:00;20.20;99.90
25914;DHT22;13718;50.922;5.346;2022-10-26T10:51:29;20.20;99.90
25914;DHT22;13718;50.922;5.346;2022-10-26T10:53:55;20.30;99.90
25914;DHT22;13718;50.922;5.346;2022-10-26T11:02:31;20.40;99.90
25914;DHT22;13718;50.922;5.346;2022-10-26T11:10:17;20.40;99.90
25914;DHT22;13718;50.922;5.346;2022-10-26T11:12:56;20.40;99.90
25914;DHT22;13718;50.922;5.346;2022-10-26T11:15:26;20.50;99.90
25914;DHT22;13718;50.922;5.346;2022-10-26T11:18:12;20.70;99.90
25914;DHT22;13718;50.922;5.346;2022-10-26T11:20:54;20.90;99.90
25914;DHT22;13718;50.922;5.346;2022-10-26T11:23:29;20.80;99.90
25914;DHT22;13718;50.922;5.346;2022-10-26T11:26:02;20.80;99.90
25914;DHT22;13718;50.922;5.346;2022-10-26T11:31:38;20.70;99.90
25914;DHT22;13718;50.922;5.346;2022-10-26T11:36:38;20.80;99.90
25914;DHT22;13718;50.922;5.346;2022-10-26T11:39:21;20.90;99.90
25914;DHT22;13718;50.922;5.346;2022-10-26T11:42:23;20.90;99.90
25914;DHT22;13718;50.922;5.346;2022-10-26T11:47:56;21.00;99.90
25914;DHT22;13718;50.922;5.346;2022-10-26T11:50:31;21.10;99.90
25914;DHT22;13718;50.922;5.346;2022-10-26T11:53:16;21.10;99.90
25914;DHT22;13718;50.922;5.346;2022-10-26T11:55:47;21.00;99.90
25914;DHT22;13718;50.922;5.346;2022-10-26T11:58:14;21.00;99.90
25914;DHT22;13718;50.922;5.346;2022-10-26T12:00:58;20.90;99.90
25914;DHT22;13718;50.922;5.346;2022-10-26T12:03:31;20.90;99.90
25914;DHT22;13718;50.922;5.346;2022-10-26T12:05:57;21.00;99.90
25914;DHT22;13718;50.922;5.346;2022-10-26T12:08:33;20.90;99.90
25914;DHT22;13718;50.922;5.346;2022-10-26T12:11:13;21.00;99.90
25914;DHT22;13718;50.922;5.346;2022-10-26T12:13:53;21.00;99.90
25914;DHT22;13718;50.922;5.346;2022-10-26T12:19:25;21.20;99.90
25914;DHT22;13718;50.922;5.346;2022-10-26T12:21:53;21.00;99.90
25914;DHT22;13718;50.922;5.346;2022-10-26T12:26:58;21.10;99.90
25914;DHT22;13718;50.922;5.346;2022-10-26T12:29:29;21.00;99.90
25914;DHT22;13718;50.922;5.346;2022-10-26T12:31:55;21.10;99.90
25914;DHT22;13718;50.922;5.346;2022-10-26T12:34:24;21.10;99.90
25914;DHT22;13718;50.922;5.346;2022-10-26T12:37:22;21.20;99.90
25914;DHT22;13718;50.922;5.346;2022-10-26T12:39:48;21.10;99.90
25914;DHT22;13718;50.922;5.346;2022-10-26T12:47:06;21.00;99.90
25914;DHT22;13718;50.922;5.346;2022-10-26T12:50:01;21.00;99.90
25914;DHT22;13718;50.922;5.346;2022-10-26T12:52:48;20.90;99.90
25914;DHT22;13718;50.922;5.346;2022-10-26T13:00:32;21.00;99.90
25914;DHT22;13718;50.922;5.346;2022-10-26T13:08:57;21.30;99.90
25914;DHT22;13718;50.922;5.346;2022-10-26T13:11:30;21.20;99.90
25914;DHT22;13718;50.922;5.346;2022-10-26T13:13:58;21.10;99.90
25914;DHT22;13718;50.922;5.346;2022-10-26T13:16:26;21.00;99.90
25914;DHT22;13718;50.922;5.346;2022-10-26T13:18:53;21.00;99.90
25914;DHT22;13718;50.922;5.346;2022-10-26T13:21:20;20.90;99.90
25914;DHT22;13718;50.922;5.346;2022-10-26T13:26:23;20.80;99.90
25914;DHT22;13718;50.922;5.346;2022-10-26T13:28:52;20.80;99.90
25914;DHT22;13718;50.922;5.346;2022-10-26T13:36:41;20.80;99.90
25914;DHT22;13718;50.922;5.346;2022-10-26T13:39:23;20.90;99.90
25914;DHT22;13718;50.922;5.346;2022-10-26T13:41:51;20.90;99.90
25914;DHT22;13718;50.922;5.346;2022-10-26T13:44:51;20.90;99.90
25914;DHT22;13718;50.922;5.346;2022-10-26T13:47:27;20.80;99.90
25914;DHT22;13718;50.922;5.346;2022-10-26T13:49:58;20.80;99.90
25914;DHT22;13718;50.922;5.346;2022-10-26T13:52:34;20.80;99.90
25914;DHT22;13718;50.922;5.346;2022-10-26T13:55:20;20.90;99.90
25914;DHT22;13718;50.922;5.346;2022-10-26T13:58:22;20.80;99.90
25914;DHT22;13718;50.922;5.346;2022-10-26T14:01:03;20.80;99.90
25914;DHT22;13718;50.922;5.346;2022-10-26T14:03:39;20.80;99.90
25914;DHT22;13718;50.922;5.346;2022-10-26T14:08:46;20.80;99.90
25914;DHT22;13718;50.922;5.346;2022-10-26T14:11:17;20.80;99.90
25914;DHT22;13718;50.922;5.346;2022-10-26T14:13:46;20.80;99.90
25914;DHT22;13718;50.922;5.346;2022-10-26T14:16:15;20.90;99.90
25914;DHT22;13718;50.922;5.346;2022-10-26T14:18:44;20.80;99.90
25914;DHT22;13718;50.922;5.346;2022-10-26T14:21:19;20.90;99.90
25914;DHT22;13718;50.922;5.346;2022-10-26T14:23:56;21.10;99.90
25914;DHT22;13718;50.922;5.346;2022-10-26T14:26:28;21.20;99.90
25914;DHT22;13718;50.922;5.346;2022-10-26T14:28:58;21.20;99.90
25914;DHT22;13718;50.922;5.346;2022-10-26T14:31:25;21.30;99.90
25914;DHT22;13718;50.922;5.346;2022-10-26T14:33:52;21.20;99.90
25914;DHT22;13718;50.922;5.346;2022-10-26T14:36:21;21.30;99.90
25914;DHT22;13718;50.922;5.346;2022-10-26T14:38:55;21.20;99.90
25914;DHT22;13718;50.922;5.346;2022-10-26T14:41:22;21.20;99.90
25914;DHT22;13718;50.922;5.346;2022-10-26T14:43:48;21.20;99.90
25914;DHT22;13718;50.922;5.346;2022-10-26T14:46:15;21.10;99.90
25914;DHT22;13718;50.922;5.346;2022-10-26T14:48:56;21.10;99.90
25914;DHT22;13718;50.922;5.346;2022-10-26T14:51:28;21.10;99.90
25914;DHT22;13718;50.922;5.346;2022-10-26T14:53:56;21.20;99.90
25914;DHT22;13718;50.922;5.346;2022-10-26T14:58:57;21.00;99.90
25914;DHT22;13718;50.922;5.346;2022-10-26T15:01:27;20.90;99.90
25914;DHT22;13718;50.922;5.346;2022-10-26T15:04:05;20.80;99.90
25914;DHT22;13718;50.922;5.346;2022-10-26T15:06:39;20.80;99.90
25914;DHT22;13718;50.922;5.346;2022-10-26T15:09:05;20.80;99.90
25914;DHT22;13718;50.922;5.346;2022-10-26T15:11:32;20.80;99.90
25914;DHT22;13718;50.922;5.346;2022-10-26T15:13:59;20.70;99.90
25914;DHT22;13718;50.922;5.346;2022-10-26T15:16:27;20.70;99.90
25914;DHT22;13718;50.922;5.346;2022-10-26T15:18:58;20.60;99.90
25914;DHT22;13718;50.922;5.346;2022-10-26T15:21:35;20.60;99.90
25914;DHT22;13718;50.922;5.346;2022-10-26T15:24:03;20.60;99.90
25914;DHT22;13718;50.922;5.346;2022-10-26T15:26:41;20.50;99.90
25914;DHT22;13718;50.922;5.346;2022-10-26T15:32:00;20.60;99.90
25914;DHT22;13718;50.922;5.346;2022-10-26T15:34:25;20.50;99.90
25914;DHT22;13718;50.922;5.346;2022-10-26T15:36:51;20.50;99.90
25914;DHT22;13718;50.922;5.346;2022-10-26T15:39:16;20.50;99.90
25914;DHT22;13718;50.922;5.346;2022-10-26T15:41:46;20.40;99.90
25914;DHT22;13718;50.922;5.346;2022-10-26T15:44:19;20.50;99.90
25914;DHT22;13718;50.922;5.346;2022-10-26T15:46:45;20.50;99.90
25914;DHT22;13718;50.922;5.346;2022-10-26T15:49:19;20.50;99.90
25914;DHT22;13718;50.922;5.346;2022-10-26T15:51:46;20.50;99.90
25914;DHT22;13718;50.922;5.346;2022-10-26T15:54:12;20.50;99.90
25914;DHT22;13718;50.922;5.346;2022-10-26T15:56:38;20.60;99.90
25914;DHT22;13718;50.922;5.346;2022-10-26T15:59:24;20.60;99.90
25914;DHT22;13718;50.922;5.346;2022-10-26T16:01:50;20.60;99.90
25914;DHT22;13718;50.922;5.346;2022-10-26T16:04:17;20.50;99.90
25914;DHT22;13718;50.922;5.346;2022-10-26T16:06:42;20.40;99.90
25914;DHT22;13718;50.922;5.346;2022-10-26T16:09:14;20.20;99.90
25914;DHT22;13718;50.922;5.346;2022-10-26T16:11:41;20.10;99.90
25914;DHT22;13718;50.922;5.346;2022-10-26T16:14:11;20.10;99.90
25914;DHT22;13718;50.922;5.346;2022-10-26T16:16:37;20.10;99.90
25914;DHT22;13718;50.922;5.346;2022-10-26T16:19:03;20.00;99.90
25914;DHT22;13718;50.922;5.346;2022-10-26T16:21:29;19.80;99.90
25914;DHT22;13718;50.922;5.346;2022-10-26T16:23:55;19.70;99.90
25914;DHT22;13718;50.922;5.346;2022-10-26T16:26:22;19.60;99.90
25914;DHT22;13718;50.922;5.346;2022-10-26T16:28:48;19.50;99.90
25914;DHT22;13718;50.922;5.346;2022-10-26T16:31:16;19.40;99.90
25914;DHT22;13718;50.922;5.346;2022-10-26T16:33:42;19.20;99.90
25914;DHT22;13718;50.922;5.346;2022-10-26T16:36:10;19.20;99.90
25914;DHT22;13718;50.922;5.346;2022-10-26T16:38:36;19.10;99.90
25914;DHT22;13718;50.922;5.346;2022-10-26T16:41:19;19.00;99.90
25914;DHT22;13718;50.922;5.346;2022-10-26T16:43:46;18.90;99.90
25914;DHT22;13718;50.922;5.346;2022-10-26T16:46:19;18.80;99.90
25914;DHT22;13718;50.922;5.346;2022-10-26T16:48:47;18.70;99.90
25914;DHT22;13718;50.922;5.346;2022-10-26T16:51:15;18.60;99.90
25914;DHT22;13718;50.922;5.346;2022-10-26T16:53:41;18.60;99.90
25914;DHT22;13718;50.922;5.346;2022-10-26T16:56:12;18.50;99.90
25914;DHT22;13718;50.922;5.346;2022-10-26T16:58:39;18.50;99.90
25914;DHT22;13718;50.922;5.346;2022-10-26T17:01:05;18.40;99.90
25914;DHT22;13718;50.922;5.346;2022-10-26T17:03:31;18.30;99.90
25914;DHT22;13718;50.922;5.346;2022-10-26T17:06:02;18.20;99.90
25914;DHT22;13718;50.922;5.346;2022-10-26T17:08:29;18.20;99.90
25914;DHT22;13718;50.922;5.346;2022-10-26T17:11:11;18.20;99.90
25914;DHT22;13718;50.922;5.346;2022-10-26T17:13:38;18.10;99.90
25914;DHT22;13718;50.922;5.346;2022-10-26T17:16:06;18.00;99.90
25914;DHT22;13718;50.922;5.346;2022-10-26T17:18:32;17.90;99.90
25914;DHT22;13718;50.922;5.346;2022-10-26T17:20:57;17.80;99.90
25914;DHT22;13718;50.922;5.346;2022-10-26T17:23:23;17.70;99.90
25914;DHT22;13718;50.922;5.346;2022-10-26T17:25:49;17.70;99.90
25914;DHT22;13718;50.922;5.346;2022-10-26T17:28:14;17.60;99.90
25914;DHT22;13718;50.922;5.346;2022-10-26T17:30:40;17.50;99.90
25914;DHT22;13718;50.922;5.346;2022-10-26T17:33:06;17.50;99.90
25914;DHT22;13718;50.922;5.346;2022-10-26T17:35:33;17.50;99.90
25914;DHT22;13718;50.922;5.346;2022-10-26T17:37:59;17.40;99.90
25914;DHT22;13718;50.922;5.346;2022-10-26T17:40:24;17.40;99.90
25914;DHT22;13718;50.922;5.346;2022-10-26T17:42:50;17.40;99.90
25914;DHT22;13718;50.922;5.346;2022-10-26T17:45:16;17.40;99.90
25914;DHT22;13718;50.922;5.346;2022-10-26T17:47:41;17.40;99.90